sensor_id;sensor_type;location;lat;lon;timestamp;temperature;humidity
3281;DHT22;1652;51.318;6.202;2023-05-10T00:02:07;13.30;99.90
3281;DHT22;1652;51.318;6.202;2023-05-10T00:04:34;13.30;99.90
3281;DHT22;1652;51.318;6.202;2023-05-10T00:07:01;13.30;99.90
3281;DHT22;1652;51.318;6.202;2023-05-10T00:09:28;13.30;99.90
3281;DHT22;1652;51.318;6.202;2023-05-10T00:11:55;13.30;99.90
3281;DHT22;1652;51.318;6.202;2023-05-10T00:14:25;13.30;99.90
3281;DHT22;1652;51.318;6.202;2023-05-10T00:16:51;13.30;99.90
3281;DHT22;1652;51.318;6.202;2023-05-10T00:19:19;13.30;99.90
3281;DHT22;1652;51.318;6.202;2023-05-10T00:21:46;13.10;99.90
3281;DHT22;1652;51.318;6.202;2023-05-10T00:24:13;13.10;99.90
3281;DHT22;1652;51.318;6.202;2023-05-10T00:26:40;13.20;99.90
3281;DHT22;1652;51.318;6.202;2023-05-10T00:29:08;13.20;99.90
3281;DHT22;1652;51.318;6.202;2023-05-10T00:31:35;13.10;99.90
3281;DHT22;1652;51.318;6.202;2023-05-10T00:34:02;13.20;99.90
3281;DHT22;1652;51.318;6.202;2023-05-10T00:36:29;13.20;99.90
3281;DHT22;1652;51.318;6.202;2023-05-10T00:38:58;13.20;99.90
3281;DHT22;1652;51.318;6.202;2023-05-10T00:41:24;13.20;99.90
3281;DHT22;1652;51.318;6.202;2023-05-10T00:43:51;13.20;99.90
3281;DHT22;1652;51.318;6.202;2023-05-10T00:46:18;13.20;99.90
3281;DHT22;1652;51.318;6.202;2023-05-10T00:48:45;13.20;99.90
3281;DHT22;1652;51.318;6.202;2023-05-10T00:51:13;13.20;99.90
3281;DHT22;1652;51.318;6.202;2023-05-10T00:53:40;13.10;99.90
3281;DHT22;1652;51.318;6.202;2023-05-10T00:56:07;13.10;99.90
3281;DHT22;1652;51.318;6.202;2023-05-10T00:58:34;13.20;99.90
3281;DHT22;1652;51.318;6.202;2023-05-10T01:01:01;13.10;99.90
3281;DHT22;1652;51.318;6.202;2023-05-10T01:03:29;13.20;99.90
3281;DHT22;1652;51.318;6.202;2023-05-10T01:05:56;13.10;99.90
3281;DHT22;1652;51.318;6.202;2023-05-10T01:08:23;13.10;99.90
3281;DHT22;1652;51.318;6.202;2023-05-10T01:10:50;13.10;99.90
3281;DHT22;1652;51.318;6.202;2023-05-10T01:13:32;13.10;99.90
3281;DHT22;1652;51.318;6.202;2023-05-10T01:16:00;13.10;99.90
3281;DHT22;1652;51.318;6.202;2023-05-10T01:18:33;13.00;99.90
3281;DHT22;1652;51.318;6.202;2023-05-10T01:26:41;13.00;99.90
3281;DHT22;1652;51.318;6.202;2023-05-10T01:40:52;12.90;99.90
3281;DHT22;1652;51.318;6.202;2023-05-10T01:43:30;12.90;99.90
3281;DHT22;1652;51.318;6.202;2023-05-10T01:46:05;12.90;99.90
3281;DHT22;1652;51.318;6.202;2023-05-10T01:48:48;12.90;99.90
3281;DHT22;1652;51.318;6.202;2023-05-10T01:51:23;13.00;99.90
3281;DHT22;1652;51.318;6.202;2023-05-10T01:53:53;13.10;99.90
3281;DHT22;1652;51.318;6.202;2023-05-10T01:56:23;13.10;99.90
3281;DHT22;1652;51.318;6.202;2023-05-10T01:58:53;13.10;99.90
3281;DHT22;1652;51.318;6.202;2023-05-10T02:01:21;13.10;99.90
3281;DHT22;1652;51.318;6.202;2023-05-10T02:03:50;13.10;99.90
3281;DHT22;1652;51.318;6.202;2023-05-10T02:06:20;13.00;99.90
3281;DHT22;1652;51.318;6.202;2023-05-10T02:08:49;13.00;99.90
3281;DHT22;1652;51.318;6.202;2023-05-10T02:11:17;13.00;99.90
3281;DHT22;1652;51.318;6.202;2023-05-10T02:13:46;12.90;99.90
3281;DHT22;1652;51.318;6.202;2023-05-10T02:16:16;12.90;99.90
3281;DHT22;1652;51.318;6.202;2023-05-10T02:18:43;12.90;99.90
3281;DHT22;1652;51.318;6.202;2023-05-10T02:21:12;13.00;99.90
3281;DHT22;1652;51.318;6.202;2023-05-10T02:23:40;13.00;99.90
3281;DHT22;1652;51.318;6.202;2023-05-10T02:26:08;13.00;99.90
3281;DHT22;1652;51.318;6.202;2023-05-10T02:28:35;12.90;99.90
3281;DHT22;1652;51.318;6.202;2023-05-10T02:31:05;12.90;99.90
3281;DHT22;1652;51.318;6.202;2023-05-10T02:33:33;12.90;99.90
3281;DHT22;1652;51.318;6.202;2023-05-10T02:36:02;12.90;99.90
3281;DHT22;1652;51.318;6.202;2023-05-10T02:38:31;12.90;99.90
3281;DHT22;1652;51.318;6.202;2023-05-10T02:40:59;12.90;99.90
3281;DHT22;1652;51.318;6.202;2023-05-10T02:43:28;12.90;99.90
3281;DHT22;1652;51.318;6.202;2023-05-10T02:45:57;13.00;99.90
3281;DHT22;1652;51.318;6.202;2023-05-10T02:48:24;13.00;99.90
3281;DHT22;1652;51.318;6.202;2023-05-10T02:50:52;13.10;99.90
3281;DHT22;1652;51.318;6.202;2023-05-10T02:53:23;13.10;99.90
3281;DHT22;1652;51.318;6.202;2023-05-10T02:55:58;13.10;99.90
3281;DHT22;1652;51.318;6.202;2023-05-10T02:58:26;13.20;99.90
3281;DHT22;1652;51.318;6.202;2023-05-10T03:00:53;13.20;99.90
3281;DHT22;1652;51.318;6.202;2023-05-10T03:03:20;13.20;99.90
3281;DHT22;1652;51.318;6.202;2023-05-10T03:05:47;13.20;99.90
3281;DHT22;1652;51.318;6.202;2023-05-10T03:08:14;13.20;99.90
3281;DHT22;1652;51.318;6.202;2023-05-10T03:10:47;13.20;99.90
3281;DHT22;1652;51.318;6.202;2023-05-10T03:13:31;13.20;99.90
3281;DHT22;1652;51.318;6.202;2023-05-10T03:16:06;13.30;99.90
3281;DHT22;1652;51.318;6.202;2023-05-10T03:21:13;13.40;99.90
3281;DHT22;1652;51.318;6.202;2023-05-10T03:23:59;13.30;99.90
3281;DHT22;1652;51.318;6.202;2023-05-10T03:26:28;13.30;99.90
3281;DHT22;1652;51.318;6.202;2023-05-10T03:28:55;13.40;99.90
3281;DHT22;1652;51.318;6.202;2023-05-10T03:31:25;13.30;99.90
3281;DHT22;1652;51.318;6.202;2023-05-10T03:33:52;13.30;99.90
3281;DHT22;1652;51.318;6.202;2023-05-10T03:36:19;13.30;99.90
3281;DHT22;1652;51.318;6.202;2023-05-10T03:38:46;13.30;99.90
3281;DHT22;1652;51.318;6.202;2023-05-10T03:41:13;13.40;99.90
3281;DHT22;1652;51.318;6.202;2023-05-10T03:43:40;13.30;99.90
3281;DHT22;1652;51.318;6.202;2023-05-10T03:46:08;13.30;99.90
3281;DHT22;1652;51.318;6.202;2023-05-10T03:48:35;13.30;99.90
3281;DHT22;1652;51.318;6.202;2023-05-10T03:51:02;13.30;99.90
3281;DHT22;1652;51.318;6.202;2023-05-10T03:53:29;13.20;99.90
3281;DHT22;1652;51.318;6.202;2023-05-10T03:55:56;13.30;99.90
3281;DHT22;1652;51.318;6.202;2023-05-10T03:58:23;13.30;99.90
3281;DHT22;1652;51.318;6.202;2023-05-10T04:00:51;13.20;99.90
3281;DHT22;1652;51.318;6.202;2023-05-10T04:03:18;13.20;99.90
3281;DHT22;1652;51.318;6.202;2023-05-10T04:05:45;13.20;99.90
3281;DHT22;1652;51.318;6.202;2023-05-10T04:08:12;13.20;99.90
3281;DHT22;1652;51.318;6.202;2023-05-10T04:10:39;13.20;99.90
3281;DHT22;1652;51.318;6.202;2023-05-10T04:13:06;13.30;99.90
3281;DHT22;1652;51.318;6.202;2023-05-10T04:15:33;13.30;99.90
3281;DHT22;1652;51.318;6.202;2023-05-10T04:18:00;13.30;99.90
3281;DHT22;1652;51.318;6.202;2023-05-10T04:20:27;13.30;99.90
3281;DHT22;1652;51.318;6.202;2023-05-10T04:22:54;13.30;99.90
3281;DHT22;1652;51.318;6.202;2023-05-10T04:25:21;13.30;99.90
3281;DHT22;1652;51.318;6.202;2023-05-10T04:27:48;13.30;99.90
3281;DHT22;1652;51.318;6.202;2023-05-10T04:30:15;13.30;99.90
3281;DHT22;1652;51.318;6.202;2023-05-10T04:32:42;13.30;99.90
3281;DHT22;1652;51.318;6.202;2023-05-10T04:35:09;13.40;99.90
3281;DHT22;1652;51.318;6.202;2023-05-10T04:37:37;13.30;99.90
3281;DHT22;1652;51.318;6.202;2023-05-10T04:40:04;13.30;99.90
3281;DHT22;1652;51.318;6.202;2023-05-10T04:42:31;13.40;99.90
3281;DHT22;1652;51.318;6.202;2023-05-10T04:44:59;13.30;99.90
3281;DHT22;1652;51.318;6.202;2023-05-10T04:47:25;13.40;99.90
3281;DHT22;1652;51.318;6.202;2023-05-10T04:49:52;13.40;99.90
3281;DHT22;1652;51.318;6.202;2023-05-10T04:52:19;13.30;99.90
3281;DHT22;1652;51.318;6.202;2023-05-10T04:54:46;13.30;99.90
3281;DHT22;1652;51.318;6.202;2023-05-10T04:57:13;13.30;99.90
3281;DHT22;1652;51.318;6.202;2023-05-10T04:59:40;13.20;99.90
3281;DHT22;1652;51.318;6.202;2023-05-10T05:02:07;13.30;99.90
3281;DHT22;1652;51.318;6.202;2023-05-10T05:04:34;13.30;99.90
3281;DHT22;1652;51.318;6.202;2023-05-10T05:07:01;13.30;99.90
3281;DHT22;1652;51.318;6.202;2023-05-10T05:09:28;13.30;99.90
3281;DHT22;1652;51.318;6.202;2023-05-10T05:11:55;13.40;99.90
3281;DHT22;1652;51.318;6.202;2023-05-10T05:14:22;13.40;99.90
3281;DHT22;1652;51.318;6.202;2023-05-10T05:16:52;13.30;99.90
3281;DHT22;1652;51.318;6.202;2023-05-10T05:19:19;13.30;99.90
3281;DHT22;1652;51.318;6.202;2023-05-10T05:21:46;13.30;99.90
3281;DHT22;1652;51.318;6.202;2023-05-10T05:24:13;13.30;99.90
3281;DHT22;1652;51.318;6.202;2023-05-10T05:26:40;13.30;99.90
3281;DHT22;1652;51.318;6.202;2023-05-10T05:29:07;13.30;99.90
3281;DHT22;1652;51.318;6.202;2023-05-10T05:31:33;13.40;99.90
3281;DHT22;1652;51.318;6.202;2023-05-10T05:34:00;13.40;99.90
3281;DHT22;1652;51.318;6.202;2023-05-10T05:36:27;13.30;99.90
3281;DHT22;1652;51.318;6.202;2023-05-10T05:38:54;13.30;99.90
3281;DHT22;1652;51.318;6.202;2023-05-10T05:41:21;13.20;99.90
3281;DHT22;1652;51.318;6.202;2023-05-10T05:43:48;13.20;99.90
3281;DHT22;1652;51.318;6.202;2023-05-10T05:46:15;13.40;99.90
3281;DHT22;1652;51.318;6.202;2023-05-10T05:48:42;13.40;99.90
3281;DHT22;1652;51.318;6.202;2023-05-10T05:51:09;13.60;99.90
3281;DHT22;1652;51.318;6.202;2023-05-10T05:53:36;13.60;99.90
3281;DHT22;1652;51.318;6.202;2023-05-10T05:56:03;13.70;99.90
3281;DHT22;1652;51.318;6.202;2023-05-10T05:58:30;13.60;99.90
3281;DHT22;1652;51.318;6.202;2023-05-10T06:00:57;13.60;99.90
3281;DHT22;1652;51.318;6.202;2023-05-10T06:03:24;13.50;99.90
3281;DHT22;1652;51.318;6.202;2023-05-10T06:05:51;13.50;99.90
3281;DHT22;1652;51.318;6.202;2023-05-10T06:08:17;13.50;99.90
3281;DHT22;1652;51.318;6.202;2023-05-10T06:10:44;13.50;99.90
3281;DHT22;1652;51.318;6.202;2023-05-10T06:13:12;13.50;99.90
3281;DHT22;1652;51.318;6.202;2023-05-10T06:15:39;13.50;99.90
3281;DHT22;1652;51.318;6.202;2023-05-10T06:18:06;13.50;99.90
3281;DHT22;1652;51.318;6.202;2023-05-10T06:20:33;13.60;99.90
3281;DHT22;1652;51.318;6.202;2023-05-10T06:23:00;13.60;99.90
3281;DHT22;1652;51.318;6.202;2023-05-10T06:25:27;13.60;99.90
3281;DHT22;1652;51.318;6.202;2023-05-10T06:27:54;13.60;99.90
3281;DHT22;1652;51.318;6.202;2023-05-10T06:30:25;13.60;99.90
3281;DHT22;1652;51.318;6.202;2023-05-10T06:32:56;13.70;99.90
3281;DHT22;1652;51.318;6.202;2023-05-10T06:35:23;13.70;99.90
3281;DHT22;1652;51.318;6.202;2023-05-10T06:37:50;13.70;99.90
3281;DHT22;1652;51.318;6.202;2023-05-10T06:40:18;13.70;99.90
3281;DHT22;1652;51.318;6.202;2023-05-10T06:42:45;13.70;99.90
3281;DHT22;1652;51.318;6.202;2023-05-10T06:45:13;13.70;99.90
3281;DHT22;1652;51.318;6.202;2023-05-10T06:47:41;13.80;99.90
3281;DHT22;1652;51.318;6.202;2023-05-10T06:50:09;13.80;99.90
3281;DHT22;1652;51.318;6.202;2023-05-10T06:52:36;13.80;99.90
3281;DHT22;1652;51.318;6.202;2023-05-10T06:55:04;13.80;99.90
3281;DHT22;1652;51.318;6.202;2023-05-10T06:57:31;13.70;99.90
3281;DHT22;1652;51.318;6.202;2023-05-10T06:59:59;13.60;99.90
3281;DHT22;1652;51.318;6.202;2023-05-10T07:02:26;13.60;99.90
3281;DHT22;1652;51.318;6.202;2023-05-10T07:04:53;13.50;99.90
3281;DHT22;1652;51.318;6.202;2023-05-10T07:07:20;13.50;99.90
3281;DHT22;1652;51.318;6.202;2023-05-10T07:09:47;13.60;99.90
3281;DHT22;1652;51.318;6.202;2023-05-10T07:12:15;13.60;99.90
3281;DHT22;1652;51.318;6.202;2023-05-10T07:14:42;13.70;99.90
3281;DHT22;1652;51.318;6.202;2023-05-10T07:17:09;13.80;99.90
3281;DHT22;1652;51.318;6.202;2023-05-10T07:19:36;13.90;99.90
3281;DHT22;1652;51.318;6.202;2023-05-10T07:22:03;14.00;99.90
3281;DHT22;1652;51.318;6.202;2023-05-10T07:24:31;14.10;99.90
3281;DHT22;1652;51.318;6.202;2023-05-10T07:26:58;14.10;99.90
3281;DHT22;1652;51.318;6.202;2023-05-10T07:29:25;14.20;99.90
3281;DHT22;1652;51.318;6.202;2023-05-10T07:31:52;14.30;99.90
3281;DHT22;1652;51.318;6.202;2023-05-10T07:34:22;14.40;99.90
3281;DHT22;1652;51.318;6.202;2023-05-10T07:36:49;14.50;99.90
3281;DHT22;1652;51.318;6.202;2023-05-10T07:39:16;14.70;99.90
3281;DHT22;1652;51.318;6.202;2023-05-10T07:41:52;14.80;99.90
3281;DHT22;1652;51.318;6.202;2023-05-10T07:44:19;14.90;99.90
3281;DHT22;1652;51.318;6.202;2023-05-10T07:46:47;14.80;99.90
3281;DHT22;1652;51.318;6.202;2023-05-10T07:49:14;14.70;99.90
3281;DHT22;1652;51.318;6.202;2023-05-10T07:51:41;14.60;99.90
3281;DHT22;1652;51.318;6.202;2023-05-10T07:54:09;14.70;99.90
3281;DHT22;1652;51.318;6.202;2023-05-10T07:56:36;14.70;99.90
3281;DHT22;1652;51.318;6.202;2023-05-10T07:59:03;14.80;99.90
3281;DHT22;1652;51.318;6.202;2023-05-10T08:01:32;14.80;99.90
3281;DHT22;1652;51.318;6.202;2023-05-10T08:04:00;14.90;99.90
3281;DHT22;1652;51.318;6.202;2023-05-10T08:06:28;14.90;99.90
3281;DHT22;1652;51.318;6.202;2023-05-10T08:08:57;15.00;99.90
3281;DHT22;1652;51.318;6.202;2023-05-10T08:11:24;14.90;99.90
3281;DHT22;1652;51.318;6.202;2023-05-10T08:13:52;15.00;99.90
3281;DHT22;1652;51.318;6.202;2023-05-10T08:16:19;15.10;99.90
3281;DHT22;1652;51.318;6.202;2023-05-10T08:18:47;15.10;99.90
3281;DHT22;1652;51.318;6.202;2023-05-10T08:21:15;15.00;99.90
3281;DHT22;1652;51.318;6.202;2023-05-10T08:23:42;14.80;99.90
3281;DHT22;1652;51.318;6.202;2023-05-10T08:26:10;14.80;99.90
3281;DHT22;1652;51.318;6.202;2023-05-10T08:28:38;14.70;99.90
3281;DHT22;1652;51.318;6.202;2023-05-10T08:31:05;14.70;99.90
3281;DHT22;1652;51.318;6.202;2023-05-10T08:33:32;14.70;99.90
3281;DHT22;1652;51.318;6.202;2023-05-10T08:35:59;14.70;99.90
3281;DHT22;1652;51.318;6.202;2023-05-10T08:38:26;14.70;99.90
3281;DHT22;1652;51.318;6.202;2023-05-10T08:40:54;14.70;99.90
3281;DHT22;1652;51.318;6.202;2023-05-10T08:43:29;14.60;99.90
3281;DHT22;1652;51.318;6.202;2023-05-10T08:46:00;14.50;99.90
3281;DHT22;1652;51.318;6.202;2023-05-10T08:48:29;14.50;99.90
3281;DHT22;1652;51.318;6.202;2023-05-10T08:50:58;14.40;99.90
3281;DHT22;1652;51.318;6.202;2023-05-10T08:53:26;14.50;99.90
3281;DHT22;1652;51.318;6.202;2023-05-10T08:55:55;14.50;99.90
3281;DHT22;1652;51.318;6.202;2023-05-10T08:58:22;14.60;99.90
3281;DHT22;1652;51.318;6.202;2023-05-10T09:00:49;14.70;99.90
3281;DHT22;1652;51.318;6.202;2023-05-10T09:03:19;14.90;99.90
3281;DHT22;1652;51.318;6.202;2023-05-10T09:05:47;15.00;99.90
3281;DHT22;1652;51.318;6.202;2023-05-10T09:08:15;15.00;99.90
3281;DHT22;1652;51.318;6.202;2023-05-10T09:10:45;15.10;99.90
3281;DHT22;1652;51.318;6.202;2023-05-10T09:13:14;15.10;99.90
3281;DHT22;1652;51.318;6.202;2023-05-10T09:15:43;15.10;99.90
3281;DHT22;1652;51.318;6.202;2023-05-10T09:18:11;15.00;99.90
3281;DHT22;1652;51.318;6.202;2023-05-10T09:20:38;14.90;99.90
3281;DHT22;1652;51.318;6.202;2023-05-10T09:23:05;14.90;99.90
3281;DHT22;1652;51.318;6.202;2023-05-10T09:25:32;14.90;99.90
3281;DHT22;1652;51.318;6.202;2023-05-10T09:28:02;14.90;99.90
3281;DHT22;1652;51.318;6.202;2023-05-10T09:30:32;14.90;99.90
3281;DHT22;1652;51.318;6.202;2023-05-10T09:33:00;14.90;99.90
3281;DHT22;1652;51.318;6.202;2023-05-10T09:35:29;15.00;99.90
3281;DHT22;1652;51.318;6.202;2023-05-10T09:37:59;15.10;99.90
3281;DHT22;1652;51.318;6.202;2023-05-10T09:40:28;15.20;99.90
3281;DHT22;1652;51.318;6.202;2023-05-10T09:43:07;15.10;99.90
3281;DHT22;1652;51.318;6.202;2023-05-10T09:45:35;15.10;99.90
3281;DHT22;1652;51.318;6.202;2023-05-10T09:48:05;15.30;99.90
3281;DHT22;1652;51.318;6.202;2023-05-10T09:50:32;15.30;99.90
3281;DHT22;1652;51.318;6.202;2023-05-10T09:53:02;15.30;99.90
3281;DHT22;1652;51.318;6.202;2023-05-10T09:55:40;15.30;99.90
3281;DHT22;1652;51.318;6.202;2023-05-10T09:58:20;15.20;99.90
3281;DHT22;1652;51.318;6.202;2023-05-10T10:00:47;15.20;99.90
3281;DHT22;1652;51.318;6.202;2023-05-10T10:03:19;15.10;99.90
3281;DHT22;1652;51.318;6.202;2023-05-10T10:05:48;15.10;99.90
3281;DHT22;1652;51.318;6.202;2023-05-10T10:08:15;15.40;99.90
3281;DHT22;1652;51.318;6.202;2023-05-10T10:10:43;15.60;99.90
3281;DHT22;1652;51.318;6.202;2023-05-10T10:13:13;15.80;99.90
3281;DHT22;1652;51.318;6.202;2023-05-10T10:15:42;15.70;99.90
3281;DHT22;1652;51.318;6.202;2023-05-10T10:18:13;15.60;99.90
3281;DHT22;1652;51.318;6.202;2023-05-10T10:20:42;15.50;99.90
3281;DHT22;1652;51.318;6.202;2023-05-10T10:23:09;15.60;99.90
3281;DHT22;1652;51.318;6.202;2023-05-10T10:25:37;15.70;99.90
3281;DHT22;1652;51.318;6.202;2023-05-10T10:28:23;15.70;99.90
3281;DHT22;1652;51.318;6.202;2023-05-10T10:30:54;15.90;99.90
3281;DHT22;1652;51.318;6.202;2023-05-10T10:33:51;16.00;99.90
3281;DHT22;1652;51.318;6.202;2023-05-10T10:36:19;16.00;99.90
3281;DHT22;1652;51.318;6.202;2023-05-10T10:41:34;16.20;99.90
3281;DHT22;1652;51.318;6.202;2023-05-10T10:52:22;16.50;99.90
3281;DHT22;1652;51.318;6.202;2023-05-10T11:00:30;16.50;99.90
3281;DHT22;1652;51.318;6.202;2023-05-10T11:05:41;16.80;99.90
3281;DHT22;1652;51.318;6.202;2023-05-10T11:08:11;17.10;99.90
3281;DHT22;1652;51.318;6.202;2023-05-10T11:10:39;17.40;99.90
3281;DHT22;1652;51.318;6.202;2023-05-10T11:13:08;17.60;99.90
3281;DHT22;1652;51.318;6.202;2023-05-10T11:15:38;17.70;99.90
3281;DHT22;1652;51.318;6.202;2023-05-10T11:18:28;18.00;99.90
3281;DHT22;1652;51.318;6.202;2023-05-10T11:20:59;18.10;99.90
3281;DHT22;1652;51.318;6.202;2023-05-10T11:26:08;18.10;99.90
3281;DHT22;1652;51.318;6.202;2023-05-10T11:28:45;18.00;99.90
3281;DHT22;1652;51.318;6.202;2023-05-10T11:31:16;17.80;99.90
3281;DHT22;1652;51.318;6.202;2023-05-10T11:33:49;17.50;99.90
3281;DHT22;1652;51.318;6.202;2023-05-10T11:36:32;17.30;99.90
3281;DHT22;1652;51.318;6.202;2023-05-10T11:38:59;17.10;99.90
3281;DHT22;1652;51.318;6.202;2023-05-10T11:41:28;17.00;99.90
3281;DHT22;1652;51.318;6.202;2023-05-10T11:43:57;17.00;99.90
3281;DHT22;1652;51.318;6.202;2023-05-10T11:46:25;16.90;99.90
3281;DHT22;1652;51.318;6.202;2023-05-10T11:48:58;16.90;99.90
3281;DHT22;1652;51.318;6.202;2023-05-10T11:51:27;16.90;99.90
3281;DHT22;1652;51.318;6.202;2023-05-10T11:53:56;16.90;99.90
3281;DHT22;1652;51.318;6.202;2023-05-10T11:56:23;16.90;99.90
3281;DHT22;1652;51.318;6.202;2023-05-10T11:58:57;17.00;99.90
3281;DHT22;1652;51.318;6.202;2023-05-10T12:01:26;17.10;99.90
3281;DHT22;1652;51.318;6.202;2023-05-10T12:03:54;17.10;99.90
3281;DHT22;1652;51.318;6.202;2023-05-10T12:06:22;17.30;99.90
3281;DHT22;1652;51.318;6.202;2023-05-10T12:08:49;17.60;99.90
3281;DHT22;1652;51.318;6.202;2023-05-10T12:11:20;17.90;99.90
3281;DHT22;1652;51.318;6.202;2023-05-10T12:13:50;18.10;99.90
3281;DHT22;1652;51.318;6.202;2023-05-10T12:16:25;18.10;99.90
3281;DHT22;1652;51.318;6.202;2023-05-10T12:18:59;18.10;99.90
3281;DHT22;1652;51.318;6.202;2023-05-10T12:21:29;18.10;99.90
3281;DHT22;1652;51.318;6.202;2023-05-10T12:24:02;18.20;99.90
3281;DHT22;1652;51.318;6.202;2023-05-10T12:26:30;18.40;99.90
3281;DHT22;1652;51.318;6.202;2023-05-10T12:29:14;18.40;99.90
3281;DHT22;1652;51.318;6.202;2023-05-10T12:31:53;18.50;99.90
3281;DHT22;1652;51.318;6.202;2023-05-10T12:34:31;18.50;99.90
3281;DHT22;1652;51.318;6.202;2023-05-10T12:36:58;18.70;99.90
3281;DHT22;1652;51.318;6.202;2023-05-10T12:39:25;19.00;99.90
3281;DHT22;1652;51.318;6.202;2023-05-10T12:41:52;19.40;99.90
3281;DHT22;1652;51.318;6.202;2023-05-10T12:44:19;19.60;99.90
3281;DHT22;1652;51.318;6.202;2023-05-10T12:46:46;19.80;99.90
3281;DHT22;1652;51.318;6.202;2023-05-10T12:49:13;19.80;99.90
3281;DHT22;1652;51.318;6.202;2023-05-10T12:51:40;19.90;99.90
3281;DHT22;1652;51.318;6.202;2023-05-10T12:54:07;20.10;99.90
3281;DHT22;1652;51.318;6.202;2023-05-10T12:56:34;20.30;99.90
3281;DHT22;1652;51.318;6.202;2023-05-10T12:59:01;20.30;99.90
3281;DHT22;1652;51.318;6.202;2023-05-10T13:01:28;20.00;99.90
3281;DHT22;1652;51.318;6.202;2023-05-10T13:03:55;19.70;99.90
3281;DHT22;1652;51.318;6.202;2023-05-10T13:06:21;19.50;99.90
3281;DHT22;1652;51.318;6.202;2023-05-10T13:08:48;19.60;99.90
3281;DHT22;1652;51.318;6.202;2023-05-10T13:11:15;19.80;99.90
3281;DHT22;1652;51.318;6.202;2023-05-10T13:13:43;20.00;99.90
3281;DHT22;1652;51.318;6.202;2023-05-10T13:16:10;20.10;99.90
3281;DHT22;1652;51.318;6.202;2023-05-10T13:18:37;20.00;99.90
3281;DHT22;1652;51.318;6.202;2023-05-10T13:21:04;19.80;99.90
3281;DHT22;1652;51.318;6.202;2023-05-10T13:23:32;19.50;99.90
3281;DHT22;1652;51.318;6.202;2023-05-10T13:25:58;19.40;99.90
3281;DHT22;1652;51.318;6.202;2023-05-10T13:28:25;19.00;99.90
3281;DHT22;1652;51.318;6.202;2023-05-10T13:30:53;18.90;99.90
3281;DHT22;1652;51.318;6.202;2023-05-10T13:33:19;18.90;99.90
3281;DHT22;1652;51.318;6.202;2023-05-10T13:35:46;18.80;99.90
3281;DHT22;1652;51.318;6.202;2023-05-10T13:38:13;18.80;99.90
3281;DHT22;1652;51.318;6.202;2023-05-10T13:40:40;18.80;99.90
3281;DHT22;1652;51.318;6.202;2023-05-10T13:43:07;18.90;99.90
3281;DHT22;1652;51.318;6.202;2023-05-10T13:45:34;19.10;99.90
3281;DHT22;1652;51.318;6.202;2023-05-10T13:48:01;19.20;99.90
3281;DHT22;1652;51.318;6.202;2023-05-10T13:50:28;18.90;99.90
3281;DHT22;1652;51.318;6.202;2023-05-10T13:52:55;18.80;99.90
3281;DHT22;1652;51.318;6.202;2023-05-10T13:55:22;18.90;99.90
3281;DHT22;1652;51.318;6.202;2023-05-10T13:57:48;18.80;99.90
3281;DHT22;1652;51.318;6.202;2023-05-10T14:00:16;19.00;99.90
3281;DHT22;1652;51.318;6.202;2023-05-10T14:02:43;19.20;99.90
3281;DHT22;1652;51.318;6.202;2023-05-10T14:05:10;19.30;99.90
3281;DHT22;1652;51.318;6.202;2023-05-10T14:07:38;19.50;99.90
3281;DHT22;1652;51.318;6.202;2023-05-10T14:10:05;19.50;99.90
3281;DHT22;1652;51.318;6.202;2023-05-10T14:12:32;19.70;99.90
3281;DHT22;1652;51.318;6.202;2023-05-10T14:14:59;19.80;99.90
3281;DHT22;1652;51.318;6.202;2023-05-10T14:20:06;19.80;99.90
3281;DHT22;1652;51.318;6.202;2023-05-10T14:22:33;19.50;99.90
3281;DHT22;1652;51.318;6.202;2023-05-10T14:25:00;19.50;99.90
3281;DHT22;1652;51.318;6.202;2023-05-10T14:27:27;19.50;99.90
3281;DHT22;1652;51.318;6.202;2023-05-10T14:29:54;19.70;99.90
3281;DHT22;1652;51.318;6.202;2023-05-10T14:32:21;19.90;99.90
3281;DHT22;1652;51.318;6.202;2023-05-10T14:34:48;20.10;99.90
3281;DHT22;1652;51.318;6.202;2023-05-10T14:37:15;19.90;99.90
3281;DHT22;1652;51.318;6.202;2023-05-10T14:39:42;19.70;99.90
3281;DHT22;1652;51.318;6.202;2023-05-10T14:42:09;19.90;99.90
3281;DHT22;1652;51.318;6.202;2023-05-10T14:44:36;20.00;99.90
3281;DHT22;1652;51.318;6.202;2023-05-10T14:47:04;19.90;99.90
3281;DHT22;1652;51.318;6.202;2023-05-10T14:49:30;20.10;99.90
3281;DHT22;1652;51.318;6.202;2023-05-10T14:51:58;20.40;99.90
3281;DHT22;1652;51.318;6.202;2023-05-10T14:54:25;20.60;99.90
3281;DHT22;1652;51.318;6.202;2023-05-10T14:56:51;20.70;99.90
3281;DHT22;1652;51.318;6.202;2023-05-10T14:59:18;20.90;99.90
3281;DHT22;1652;51.318;6.202;2023-05-10T15:01:46;20.80;99.90
3281;DHT22;1652;51.318;6.202;2023-05-10T15:04:13;20.70;99.90
3281;DHT22;1652;51.318;6.202;2023-05-10T15:06:43;20.50;99.90
3281;DHT22;1652;51.318;6.202;2023-05-10T15:09:10;20.00;99.90
3281;DHT22;1652;51.318;6.202;2023-05-10T15:11:37;19.40;99.90
3281;DHT22;1652;51.318;6.202;2023-05-10T15:14:04;19.00;99.90
3281;DHT22;1652;51.318;6.202;2023-05-10T15:16:31;18.80;99.90
3281;DHT22;1652;51.318;6.202;2023-05-10T15:19:01;18.70;99.90
3281;DHT22;1652;51.318;6.202;2023-05-10T15:21:28;18.40;99.90
3281;DHT22;1652;51.318;6.202;2023-05-10T15:23:57;18.20;99.90
3281;DHT22;1652;51.318;6.202;2023-05-10T15:26:24;18.20;99.90
3281;DHT22;1652;51.318;6.202;2023-05-10T15:28:52;17.70;99.90
3281;DHT22;1652;51.318;6.202;2023-05-10T15:31:19;17.30;99.90
3281;DHT22;1652;51.318;6.202;2023-05-10T15:33:46;17.20;99.90
3281;DHT22;1652;51.318;6.202;2023-05-10T15:36:13;16.80;99.90
3281;DHT22;1652;51.318;6.202;2023-05-10T15:38:40;16.60;99.90
3281;DHT22;1652;51.318;6.202;2023-05-10T15:41:07;16.50;99.90
3281;DHT22;1652;51.318;6.202;2023-05-10T15:43:33;16.30;99.90
3281;DHT22;1652;51.318;6.202;2023-05-10T15:46:00;16.30;99.90
3281;DHT22;1652;51.318;6.202;2023-05-10T15:48:27;16.30;99.90
3281;DHT22;1652;51.318;6.202;2023-05-10T15:50:55;16.40;99.90
3281;DHT22;1652;51.318;6.202;2023-05-10T15:53:22;16.30;99.90
3281;DHT22;1652;51.318;6.202;2023-05-10T15:55:49;16.10;99.90
3281;DHT22;1652;51.318;6.202;2023-05-10T15:58:16;15.80;99.90
3281;DHT22;1652;51.318;6.202;2023-05-10T16:00:43;15.80;99.90
3281;DHT22;1652;51.318;6.202;2023-05-10T16:03:09;15.70;99.90
3281;DHT22;1652;51.318;6.202;2023-05-10T16:05:36;15.50;99.90
3281;DHT22;1652;51.318;6.202;2023-05-10T16:08:03;15.30;99.90
3281;DHT22;1652;51.318;6.202;2023-05-10T16:10:31;15.30;99.90
3281;DHT22;1652;51.318;6.202;2023-05-10T16:12:58;15.10;99.90
3281;DHT22;1652;51.318;6.202;2023-05-10T16:15:26;15.10;99.90
3281;DHT22;1652;51.318;6.202;2023-05-10T16:17:53;15.00;99.90
3281;DHT22;1652;51.318;6.202;2023-05-10T16:20:20;14.90;99.90
3281;DHT22;1652;51.318;6.202;2023-05-10T16:22:47;14.90;99.90
3281;DHT22;1652;51.318;6.202;2023-05-10T16:25:14;14.90;99.90
3281;DHT22;1652;51.318;6.202;2023-05-10T16:27:41;14.80;99.90
3281;DHT22;1652;51.318;6.202;2023-05-10T16:30:09;14.70;99.90
3281;DHT22;1652;51.318;6.202;2023-05-10T16:32:36;14.60;99.90
3281;DHT22;1652;51.318;6.202;2023-05-10T16:35:03;14.40;99.90
3281;DHT22;1652;51.318;6.202;2023-05-10T16:37:30;14.40;99.90
3281;DHT22;1652;51.318;6.202;2023-05-10T16:39:57;14.40;99.90
3281;DHT22;1652;51.318;6.202;2023-05-10T16:42:23;14.40;99.90
3281;DHT22;1652;51.318;6.202;2023-05-10T16:44:52;14.40;99.90
3281;DHT22;1652;51.318;6.202;2023-05-10T16:47:19;14.30;99.90
3281;DHT22;1652;51.318;6.202;2023-05-10T16:49:46;14.30;99.90
3281;DHT22;1652;51.318;6.202;2023-05-10T16:52:13;14.30;99.90
3281;DHT22;1652;51.318;6.202;2023-05-10T16:54:40;14.20;99.90